createdAt,value
2022-07-29T00:04:36.658Z,18.49
2022-07-29T00:09:50.758Z,18.49
2022-07-29T00:14:37.465Z,18.49
2022-07-29T00:19:36.351Z,18.49
2022-07-29T00:24:36.286Z,18.47
2022-07-29T00:29:36.231Z,18.52
2022-07-29T00:34:36.177Z,18.52
2022-07-29T00:39:36.112Z,18.53
2022-07-29T00:44:36.043Z,18.52
2022-07-29T00:49:35.964Z,18.50
2022-07-29T00:54:37.167Z,18.45
2022-07-29T00:59:35.825Z,18.41
2022-07-29T01:04:35.775Z,18.38
2022-07-29T01:09:45.664Z,18.34
2022-07-29T01:14:36.674Z,18.28
2022-07-29T01:19:35.564Z,18.24
2022-07-29T01:24:35.516Z,18.21
2022-07-29T01:29:38.779Z,18.18
2022-07-29T01:34:35.374Z,18.17
2022-07-29T01:39:35.311Z,18.12
2022-07-29T01:44:35.242Z,18.12
2022-07-29T01:49:35.177Z,18.10
2022-07-29T01:54:35.127Z,18.04
2022-07-29T01:59:35.045Z,17.96
2022-07-29T02:04:35.022Z,17.94
2022-07-29T02:09:35.015Z,17.91
2022-07-29T02:14:34.860Z,17.88
2022-07-29T02:19:34.991Z,17.91
2022-07-29T02:24:34.984Z,17.93
2022-07-29T02:29:34.654Z,17.89
2022-07-29T02:34:34.594Z,17.86
2022-07-29T02:39:34.518Z,17.85
2022-07-29T02:44:34.963Z,17.78
2022-07-29T02:49:34.385Z,17.81
2022-07-29T02:54:34.424Z,17.81
2022-07-29T02:59:34.259Z,17.79
2022-07-29T03:04:34.297Z,17.79
2022-07-29T03:09:34.116Z,17.73
2022-07-29T03:14:34.073Z,17.70
2022-07-29T03:19:34.036Z,17.66
2022-07-29T03:24:33.938Z,17.60
2022-07-29T03:29:34.703Z,17.59
2022-07-29T03:34:33.810Z,17.56
2022-07-29T03:39:33.725Z,17.54
2022-07-29T03:44:33.648Z,17.49
2022-07-29T03:49:33.607Z,17.42
2022-07-29T03:54:33.527Z,17.42
2022-07-29T03:59:33.458Z,17.44
2022-07-29T04:04:33.388Z,17.45
2022-07-29T04:09:33.329Z,17.46
2022-07-29T04:14:33.264Z,17.48
2022-07-29T04:19:33.199Z,17.51
2022-07-29T04:24:33.120Z,17.59
2022-07-29T04:29:33.174Z,17.66
2022-07-29T04:34:32.999Z,17.79
2022-07-29T04:39:32.941Z,17.86
2022-07-29T04:44:32.866Z,17.93
2022-07-29T04:49:32.797Z,17.97
2022-07-29T04:54:32.735Z,18.15
2022-07-29T04:59:32.684Z,18.34
2022-07-29T05:04:32.593Z,18.56
2022-07-29T05:09:32.543Z,18.71
2022-07-29T05:14:32.463Z,18.75
2022-07-29T05:19:32.412Z,18.86
2022-07-29T05:24:32.330Z,18.86
2022-07-29T05:29:44.171Z,18.95
2022-07-29T05:34:33.225Z,18.99
2022-07-29T05:39:47.434Z,18.90
2022-07-29T05:44:33.089Z,18.75
2022-07-29T05:49:32.051Z,18.88
2022-07-29T05:54:31.933Z,19.11
2022-07-29T05:59:31.896Z,19.38
2022-07-29T06:04:31.851Z,19.54
2022-07-29T06:09:31.745Z,19.69
2022-07-29T06:14:31.684Z,19.85
2022-07-29T06:19:31.638Z,21.25
2022-07-29T06:24:31.565Z,21.08
2022-07-29T06:29:31.499Z,21.76
2022-07-29T06:34:31.421Z,23.61
2022-07-29T06:39:31.372Z,24.30
2022-07-29T06:44:31.300Z,24.05
2022-07-29T06:49:31.334Z,24.85
2022-07-29T06:54:31.157Z,25.00
2022-07-29T06:59:35.588Z,25.63
2022-07-29T07:04:31.024Z,26.88
2022-07-29T07:09:39.952Z,27.14
2022-07-29T07:14:30.911Z,27.67
2022-07-29T07:19:30.862Z,28.26
2022-07-29T07:24:30.771Z,28.85
2022-07-29T07:29:30.715Z,28.48
2022-07-29T07:34:30.643Z,28.49
2022-07-29T07:39:30.793Z,28.01
2022-07-29T07:44:30.505Z,27.77
2022-07-29T07:49:30.610Z,27.76
2022-07-29T07:54:30.397Z,26.51
2022-07-29T07:59:30.333Z,25.60
2022-07-29T08:04:30.369Z,25.31
2022-07-29T08:09:30.746Z,25.50
2022-07-29T08:14:30.121Z,25.73
2022-07-29T08:19:30.072Z,26.36
2022-07-29T08:24:29.993Z,26.90
2022-07-29T08:29:29.933Z,27.22
2022-07-29T08:34:29.872Z,27.64
2022-07-29T08:39:29.816Z,28.00
2022-07-29T08:44:30.653Z,27.63
2022-07-29T08:49:29.669Z,27.37
2022-07-29T08:54:29.616Z,27.54
2022-07-29T08:59:29.551Z,27.66
2022-07-29T09:04:29.470Z,28.09
2022-07-29T09:09:29.414Z,28.39
2022-07-29T09:14:29.339Z,28.14
2022-07-29T09:19:29.298Z,28.30
2022-07-29T09:24:29.213Z,28.52
2022-07-29T09:29:32.160Z,28.75
2022-07-29T09:34:29.099Z,28.69
2022-07-29T09:39:29.047Z,28.56
2022-07-29T09:44:28.960Z,28.49
2022-07-29T09:49:29.102Z,28.45
2022-07-29T09:54:28.842Z,28.29
2022-07-29T09:59:28.781Z,28.32
2022-07-29T10:04:28.719Z,28.13
2022-07-29T10:09:28.669Z,27.99
2022-07-29T10:14:28.605Z,28.13
2022-07-29T10:19:28.521Z,28.21
2022-07-29T10:24:28.451Z,28.14
2022-07-29T10:29:28.413Z,27.97
2022-07-29T10:34:28.342Z,27.64
2022-07-29T10:39:41.749Z,27.91
2022-07-29T10:44:29.237Z,28.42
2022-07-29T10:49:30.595Z,28.69
2022-07-29T10:54:28.082Z,28.76
2022-07-29T10:59:32.391Z,28.70
2022-07-29T11:04:27.946Z,28.91
2022-07-29T11:14:28.837Z,29.25
2022-07-29T11:19:30.389Z,29.25
2022-07-29T11:29:28.659Z,29.00
2022-07-29T11:34:28.006Z,29.33
2022-07-29T11:39:27.497Z,29.43
2022-07-29T11:44:27.421Z,29.46
2022-07-29T11:49:32.127Z,29.18
2022-07-29T11:54:27.879Z,29.01
2022-07-29T11:59:33.541Z,29.04
2022-07-29T12:04:28.193Z,29.48
2022-07-29T12:09:27.118Z,29.67
2022-07-29T12:14:28.064Z,29.97
2022-07-29T12:19:26.994Z,29.86
2022-07-29T12:24:27.356Z,29.91
2022-07-29T12:29:33.671Z,30.32
2022-07-29T12:34:26.776Z,30.60
2022-07-29T12:39:26.742Z,30.08
2022-07-29T12:44:26.652Z,30.15
2022-07-29T12:49:26.672Z,29.97
2022-07-29T12:54:26.535Z,29.87
2022-07-29T12:59:26.470Z,29.88
2022-07-29T13:04:26.421Z,29.58
2022-07-29T13:09:26.346Z,29.55
2022-07-29T13:14:26.276Z,29.25
2022-07-29T13:19:26.237Z,29.16
2022-07-29T13:24:26.155Z,29.15
2022-07-29T13:29:31.111Z,28.98
2022-07-29T13:34:26.032Z,29.00
2022-07-29T13:39:25.982Z,28.91
2022-07-29T13:44:25.898Z,28.75
2022-07-29T13:49:25.883Z,28.84
2022-07-29T13:54:25.761Z,28.82
2022-07-29T13:59:25.703Z,28.93
2022-07-29T14:04:25.672Z,28.96
2022-07-29T14:09:25.576Z,29.04
2022-07-29T14:14:25.515Z,29.07
2022-07-29T14:19:25.445Z,29.09
2022-07-29T14:24:25.372Z,29.07
2022-07-29T14:29:25.318Z,29.07
2022-07-29T14:34:26.292Z,29.04
2022-07-29T14:39:25.191Z,29.04
2022-07-29T14:44:25.117Z,29.19
2022-07-29T14:49:25.112Z,29.19
2022-07-29T14:54:25.197Z,29.28
2022-07-29T14:59:24.940Z,29.38
2022-07-29T15:04:24.866Z,29.35
2022-07-29T15:09:24.821Z,29.37
2022-07-29T15:14:24.741Z,29.58
2022-07-29T15:19:24.707Z,29.88
2022-07-29T15:24:24.601Z,29.97
2022-07-29T15:29:24.557Z,30.08
2022-07-29T15:34:24.475Z,29.73
2022-07-29T15:39:24.416Z,29.56
2022-07-29T15:44:24.350Z,29.48
2022-07-29T15:49:24.326Z,29.43
2022-07-29T15:54:24.217Z,29.50
2022-07-29T15:59:24.160Z,29.52
2022-07-29T16:04:24.158Z,28.25
2022-07-29T16:09:24.052Z,27.76
2022-07-29T16:14:24.029Z,27.49
2022-07-29T16:19:23.916Z,27.51
2022-07-29T16:24:23.832Z,27.39
2022-07-29T16:29:23.777Z,27.40
2022-07-29T16:34:23.709Z,27.18
2022-07-29T16:39:23.660Z,27.25
2022-07-29T16:44:25.209Z,27.11
2022-07-29T16:49:23.571Z,26.89
2022-07-29T16:54:23.466Z,26.62
2022-07-29T16:59:23.395Z,26.47
2022-07-29T17:04:23.339Z,26.51
2022-07-29T17:09:23.256Z,26.54
2022-07-29T17:14:23.383Z,26.50
2022-07-29T17:19:23.129Z,26.54
2022-07-29T17:24:23.082Z,26.44
2022-07-29T17:29:23.011Z,26.50
2022-07-29T17:34:22.957Z,26.51
2022-07-29T17:39:22.893Z,26.37
2022-07-29T17:44:22.822Z,26.35
2022-07-29T17:49:22.802Z,26.33
2022-07-29T17:54:22.694Z,26.30
2022-07-29T17:59:22.637Z,26.25
2022-07-29T18:04:22.585Z,26.21
2022-07-29T18:09:22.855Z,26.07
2022-07-29T18:14:22.439Z,25.96
2022-07-29T18:19:22.375Z,25.77
2022-07-29T18:24:22.328Z,25.72
2022-07-29T18:29:22.304Z,25.63
2022-07-29T18:34:22.182Z,25.51
2022-07-29T18:39:22.129Z,25.31
2022-07-29T18:44:22.836Z,25.17
2022-07-29T18:49:22.072Z,25.09
2022-07-29T18:54:21.934Z,25.05
2022-07-29T18:59:21.853Z,25.00
2022-07-29T19:04:21.797Z,24.92
2022-07-29T19:09:21.729Z,24.83
2022-07-29T19:14:21.689Z,24.73
2022-07-29T19:19:21.597Z,24.66
2022-07-29T19:24:21.547Z,24.60
2022-07-29T19:29:21.479Z,24.57
2022-07-29T19:34:21.429Z,24.45
2022-07-29T19:39:31.943Z,24.35
2022-07-29T19:44:22.297Z,24.32
2022-07-29T19:49:21.310Z,24.32
2022-07-29T19:54:21.152Z,24.28
2022-07-29T19:59:23.853Z,24.18
2022-07-29T20:04:21.011Z,24.13
2022-07-29T20:09:20.949Z,24.01
2022-07-29T20:14:20.913Z,23.87
2022-07-29T20:19:20.820Z,23.75
2022-07-29T20:24:20.774Z,23.68
2022-07-29T20:29:20.699Z,23.68
2022-07-29T20:34:20.640Z,23.67
2022-07-29T20:39:20.566Z,23.67
2022-07-29T20:44:20.501Z,23.62
2022-07-29T20:49:20.496Z,23.60
2022-07-29T20:54:20.383Z,23.55
2022-07-29T20:59:20.310Z,23.54
2022-07-29T21:04:20.245Z,23.46
2022-07-29T21:09:20.181Z,23.38
2022-07-29T21:14:20.121Z,23.35
2022-07-29T21:19:20.055Z,23.39
2022-07-29T21:24:20.011Z,23.50
2022-07-29T21:29:19.924Z,23.47
2022-07-29T21:34:19.873Z,23.38
2022-07-29T21:39:19.804Z,23.25
2022-07-29T21:44:19.755Z,23.09
2022-07-29T21:49:19.723Z,22.73
2022-07-29T21:54:19.616Z,22.52
2022-07-29T21:59:19.544Z,22.44
2022-07-29T22:04:19.542Z,22.21
2022-07-29T22:09:19.415Z,21.95
2022-07-29T22:14:19.357Z,21.66
2022-07-29T22:19:19.300Z,21.64
2022-07-29T22:24:19.225Z,21.57
2022-07-29T22:29:19.165Z,21.37
2022-07-29T22:34:19.093Z,21.37
2022-07-29T22:39:19.029Z,21.32
2022-07-29T22:44:18.975Z,21.20
2022-07-29T22:49:18.944Z,21.04
2022-07-29T22:54:18.844Z,20.91
2022-07-29T22:59:18.788Z,20.86
2022-07-29T23:04:18.711Z,20.81
2022-07-29T23:09:18.628Z,20.74
2022-07-29T23:14:18.588Z,20.64
2022-07-29T23:19:18.501Z,20.57
2022-07-29T23:24:18.450Z,20.49
2022-07-29T23:29:18.373Z,20.43
2022-07-29T23:34:18.316Z,20.36
2022-07-29T23:39:18.244Z,20.29
2022-07-29T23:44:18.185Z,20.18
2022-07-29T23:49:18.166Z,20.10
2022-07-29T23:54:18.057Z,20.07
2022-07-29T23:59:17.983Z,20.10
